createdAt,value
2023-11-01T00:01:36.381Z,62.26
2023-11-01T00:03:38.828Z,64.11
2023-11-01T00:05:40.731Z,64.77
2023-11-01T00:07:42.556Z,65.61
2023-11-01T00:09:44.481Z,65.90
2023-11-01T00:11:49.494Z,65.29
2023-11-01T00:13:51.708Z,64.95
2023-11-01T00:15:53.455Z,63.62
2023-11-01T00:17:56.708Z,62.95
2023-11-01T00:19:58.557Z,62.21
2023-11-01T00:22:00.147Z,62.18
2023-11-01T00:24:02.147Z,63.05
2023-11-01T00:26:04.006Z,63.43
2023-11-01T00:28:05.675Z,64.14
2023-11-01T00:30:08.360Z,64.84
2023-11-01T00:32:10.424Z,65.54
2023-11-01T00:34:12.208Z,65.41
2023-11-01T00:36:14.013Z,65.39
2023-11-01T00:38:20.633Z,66.17
2023-11-01T00:40:22.286Z,66.35
2023-11-01T00:42:23.953Z,67.52
2023-11-01T00:44:25.739Z,68.22
2023-11-01T00:46:27.504Z,68.47
2023-11-01T00:48:29.561Z,68.44
2023-11-01T00:50:31.966Z,68.36
2023-11-01T00:52:33.654Z,68.98
2023-11-01T00:54:35.259Z,68.73
2023-11-01T00:56:37.205Z,68.86
2023-11-01T00:58:39.236Z,69.83
2023-11-01T01:00:42.157Z,69.40
2023-11-01T01:02:45.033Z,69.79
2023-11-01T01:04:48.080Z,70.40
2023-11-01T01:06:49.768Z,71.00
2023-11-01T01:08:52.541Z,71.54
2023-11-01T01:10:54.517Z,71.89
2023-11-01T01:12:56.475Z,71.94
2023-11-01T01:14:58.788Z,73.16
2023-11-01T01:17:00.663Z,73.46
2023-11-01T01:19:02.678Z,74.04
2023-11-01T01:21:04.563Z,74.58
2023-11-01T01:23:06.324Z,74.73
2023-11-01T01:25:08.369Z,74.47
2023-11-01T01:27:10.059Z,74.33
2023-11-01T01:29:11.749Z,74.17
2023-11-01T01:31:15.261Z,74.08
2023-11-01T01:33:17.077Z,74.12
2023-11-01T01:35:19.474Z,72.89
2023-11-01T01:37:21.082Z,72.69
2023-11-01T01:39:24.069Z,72.04
2023-11-01T01:41:25.730Z,71.75
2023-11-01T01:43:28.887Z,71.32
2023-11-01T01:45:30.688Z,70.49
2023-11-01T01:47:34.619Z,69.97
2023-11-01T01:49:43.331Z,70.63
2023-11-01T01:51:47.405Z,71.01
2023-11-01T01:53:49.753Z,72.41
2023-11-01T01:55:52.205Z,73.06
2023-11-01T01:57:53.985Z,73.71
2023-11-01T01:59:56.479Z,74.29
2023-11-01T02:01:58.525Z,73.94
2023-11-01T02:04:00.226Z,74.81
2023-11-01T02:06:03.833Z,75.32
2023-11-01T02:08:05.796Z,75.76
2023-11-01T02:10:16.301Z,76.50
2023-11-01T02:12:18.348Z,77.23
2023-11-01T02:14:22.638Z,77.50
2023-11-01T02:16:24.630Z,77.55
2023-11-01T02:18:26.260Z,76.91
2023-11-01T02:20:28.307Z,77.23
2023-11-01T02:22:30.358Z,77.63
2023-11-01T02:24:32.162Z,77.43
2023-11-01T02:26:34.087Z,78.68
2023-11-01T02:28:36.302Z,79.09
2023-11-01T02:30:39.352Z,80.47
2023-11-01T02:32:41.288Z,80.15
2023-11-01T02:34:43.464Z,80.21
2023-11-01T02:36:45.297Z,80.04
2023-11-01T02:38:47.038Z,80.07
2023-11-01T02:40:49.300Z,79.19
2023-11-01T02:42:56.445Z,78.58
2023-11-01T02:44:58.631Z,78.80
2023-11-01T02:47:00.316Z,78.21
2023-11-01T02:49:05.323Z,77.99
2023-11-01T02:51:07.147Z,77.22
2023-11-01T02:53:08.863Z,77.26
2023-11-01T02:55:12.719Z,76.65
2023-11-01T02:57:14.362Z,76.57
2023-11-01T02:59:16.630Z,76.08
2023-11-01T03:01:18.792Z,75.95
2023-11-01T03:03:20.536Z,75.64
2023-11-01T03:05:23.953Z,75.48
2023-11-01T03:07:25.817Z,75.79
2023-11-01T03:09:27.487Z,75.76
2023-11-01T03:11:29.266Z,75.78
2023-11-01T03:13:31.476Z,75.42
2023-11-01T03:15:33.203Z,74.93
2023-11-01T03:17:36.533Z,75.25
2023-11-01T03:19:38.563Z,75.16
2023-11-01T03:21:42.632Z,74.84
2023-11-01T03:23:44.401Z,74.61
2023-11-01T03:25:46.179Z,74.87
2023-11-01T03:27:47.871Z,75.32
2023-11-01T03:29:49.705Z,75.94
2023-11-01T03:31:51.644Z,76.36
2023-11-01T03:33:53.433Z,76.16
2023-11-01T03:35:55.470Z,75.94
2023-11-01T03:37:57.159Z,75.86
2023-11-01T03:39:58.864Z,75.90
2023-11-01T03:42:06.001Z,75.37
2023-11-01T03:44:08.207Z,75.64
2023-11-01T03:46:10.128Z,75.59
2023-11-01T03:48:12.072Z,75.48
2023-11-01T03:50:13.911Z,75.70
2023-11-01T03:52:16.021Z,75.61
2023-11-01T03:54:17.911Z,75.53
2023-11-01T03:56:21.971Z,75.59
2023-11-01T03:58:23.841Z,75.91
2023-11-01T04:00:25.533Z,76.59
2023-11-01T04:02:27.324Z,76.64
2023-11-01T04:04:29.434Z,76.06
2023-11-01T04:06:33.503Z,76.00
2023-11-01T04:08:35.192Z,75.81
2023-11-01T04:10:36.881Z,76.03
2023-11-01T04:12:38.752Z,76.64
2023-11-01T04:14:40.869Z,77.02
2023-11-01T04:16:42.726Z,77.93
2023-11-01T04:18:44.595Z,77.94
2023-11-01T04:20:46.473Z,77.77
2023-11-01T04:22:48.213Z,77.17
2023-11-01T04:24:50.646Z,77.20
2023-11-01T04:26:53.686Z,76.82
2023-11-01T04:28:55.539Z,76.84
2023-11-01T04:30:57.847Z,76.97
2023-11-01T04:33:00.963Z,77.28
2023-11-01T04:35:04.002Z,77.15
2023-11-01T04:37:05.874Z,76.80
2023-11-01T04:39:07.639Z,76.96
2023-11-01T04:41:12.580Z,76.73
2023-11-01T04:43:15.907Z,76.85
2023-11-01T04:45:17.757Z,76.06
2023-11-01T04:47:19.583Z,77.17
2023-11-01T04:49:25.204Z,77.14
2023-11-01T04:51:26.896Z,77.36
2023-11-01T04:53:28.779Z,76.82
2023-11-01T04:55:31.008Z,76.48
2023-11-01T04:57:37.394Z,76.50
2023-11-01T04:59:39.115Z,76.16
2023-11-01T05:01:40.886Z,75.84
2023-11-01T05:03:42.753Z,76.10
2023-11-01T05:05:44.750Z,76.23
2023-11-01T05:07:46.694Z,76.41
2023-11-01T05:09:48.776Z,76.25
2023-11-01T05:11:51.681Z,76.21
2023-11-01T05:13:56.151Z,75.93
2023-11-01T05:15:57.816Z,75.42
2023-11-01T05:18:00.960Z,75.47
2023-11-01T05:20:05.283Z,75.49
2023-11-01T05:22:07.424Z,75.76
2023-11-01T05:24:13.511Z,76.52
2023-11-01T05:26:17.916Z,76.64
2023-11-01T05:28:19.880Z,76.25
2023-11-01T05:30:22.276Z,76.05
2023-11-01T05:32:23.943Z,75.45
2023-11-01T05:34:25.703Z,75.46
2023-11-01T05:36:29.448Z,75.26
2023-11-01T05:38:31.202Z,74.97
2023-11-01T05:40:32.904Z,74.81
2023-11-01T05:42:34.605Z,75.04
2023-11-01T05:44:36.516Z,74.30
2023-11-01T05:46:40.855Z,75.28
2023-11-01T05:48:43.589Z,75.71
2023-11-01T05:50:45.918Z,76.11
2023-11-01T05:52:47.689Z,76.83
2023-11-01T05:54:51.660Z,76.79
2023-11-01T05:56:55.719Z,76.42
2023-11-01T05:58:57.347Z,75.93
2023-11-01T06:00:59.102Z,75.64
2023-11-01T06:03:01.432Z,75.16
2023-11-01T06:05:05.395Z,74.50
2023-11-01T06:07:07.664Z,74.35
2023-11-01T06:09:09.851Z,74.23
2023-11-01T06:11:11.642Z,73.96
2023-11-01T06:13:13.380Z,73.74
2023-11-01T06:15:16.256Z,73.37
2023-11-01T06:17:17.970Z,73.29
2023-11-01T06:19:20.031Z,72.30
2023-11-01T06:21:21.731Z,72.46
2023-11-01T06:23:23.452Z,72.15
2023-11-01T06:25:25.450Z,71.67
2023-11-01T06:27:29.656Z,71.99
2023-11-01T06:29:32.400Z,71.98
2023-11-01T06:31:35.828Z,71.81
2023-11-01T06:33:39.700Z,71.60
2023-11-01T06:35:41.524Z,71.39
2023-11-01T06:37:43.609Z,70.49
2023-11-01T06:39:45.374Z,70.37
2023-11-01T06:41:47.327Z,70.31
2023-11-01T06:43:49.469Z,70.94
2023-11-01T06:45:51.755Z,70.67
2023-11-01T06:47:53.624Z,70.72
2023-11-01T06:49:57.892Z,70.79
2023-11-01T06:52:02.158Z,72.56
2023-11-01T06:54:04.037Z,73.02
2023-11-01T06:56:06.335Z,72.50
2023-11-01T06:58:08.059Z,72.61
2023-11-01T07:00:10.252Z,71.74
2023-11-01T07:02:11.892Z,72.18
2023-11-01T07:04:16.114Z,72.52
2023-11-01T07:06:22.028Z,71.96
2023-11-01T07:08:24.093Z,71.45
2023-11-01T07:10:25.996Z,70.93
2023-11-01T07:12:28.971Z,70.66
2023-11-01T07:14:31.148Z,69.58
2023-11-01T07:16:33.160Z,69.39
2023-11-01T07:18:42.295Z,69.30
2023-11-01T07:20:45.027Z,69.58
2023-11-01T07:22:46.857Z,69.58
2023-11-01T07:24:51.013Z,68.95
2023-11-01T07:26:52.711Z,68.68
2023-11-01T07:28:55.919Z,68.30
2023-11-01T07:30:59.117Z,69.27
2023-11-01T07:33:01.395Z,69.84
2023-11-01T07:35:05.045Z,69.56
2023-11-01T07:37:06.894Z,69.69
2023-11-01T07:39:09.284Z,69.21
2023-11-01T07:41:11.146Z,68.84
2023-11-01T07:43:12.891Z,68.40
2023-11-01T07:45:14.766Z,67.43
2023-11-01T07:47:18.206Z,67.04
2023-11-01T07:49:19.839Z,66.72
2023-11-01T07:51:22.417Z,67.36
2023-11-01T07:53:25.441Z,67.25
2023-11-01T07:55:27.160Z,67.06
2023-11-01T07:57:29.974Z,67.11
2023-11-01T07:59:31.728Z,66.43
2023-11-01T08:01:33.874Z,66.05
2023-11-01T08:03:38.537Z,65.66
2023-11-01T08:05:40.434Z,65.59
2023-11-01T08:07:42.072Z,65.60
2023-11-01T08:09:50.614Z,65.39
2023-11-01T08:11:52.397Z,65.32
2023-11-01T08:13:54.074Z,64.80
2023-11-01T08:15:55.761Z,65.20
2023-11-01T08:17:57.693Z,65.23
2023-11-01T08:20:02.529Z,64.79
2023-11-01T08:22:07.054Z,64.18
2023-11-01T08:24:09.202Z,62.59
2023-11-01T08:26:17.689Z,62.87
2023-11-01T08:28:19.896Z,63.21
2023-11-01T08:30:22.231Z,63.17
2023-11-01T08:32:24.403Z,62.95
2023-11-01T08:34:26.480Z,65.10
2023-11-01T08:36:28.188Z,67.56
2023-11-01T08:38:30.366Z,69.05
2023-11-01T08:40:32.167Z,70.17
2023-11-01T08:42:35.304Z,71.41
2023-11-01T08:44:37.090Z,72.91
2023-11-01T08:46:38.891Z,74.22
2023-11-01T08:48:40.757Z,74.27
2023-11-01T08:50:42.677Z,73.58
2023-11-01T08:52:45.899Z,73.75
2023-11-01T08:54:48.946Z,72.90
2023-11-01T08:56:52.709Z,73.07
2023-11-01T08:58:54.406Z,71.95
2023-11-01T09:00:58.553Z,71.41
2023-11-01T09:03:01.687Z,70.09
2023-11-01T09:05:03.717Z,69.19
2023-11-01T09:07:05.599Z,68.77
2023-11-01T09:09:07.812Z,67.52
2023-11-01T09:11:09.528Z,66.48
2023-11-01T09:13:11.598Z,65.72
2023-11-01T09:15:13.378Z,65.48
2023-11-01T09:17:15.728Z,65.75
2023-11-01T09:19:17.542Z,66.31
2023-11-01T09:21:20.561Z,68.35
2023-11-01T09:23:23.544Z,69.78
2023-11-01T09:25:28.944Z,71.97
2023-11-01T09:27:30.625Z,72.66
2023-11-01T09:29:32.294Z,72.65
2023-11-01T09:31:37.245Z,72.05
2023-11-01T09:33:39.280Z,72.66
2023-11-01T09:35:41.214Z,74.00
2023-11-01T09:37:43.371Z,74.61
2023-11-01T09:39:45.356Z,74.05
2023-11-01T09:41:52.097Z,73.39
2023-11-01T09:43:59.665Z,72.59
2023-11-01T09:46:06.800Z,72.17
2023-11-01T09:48:09.576Z,71.45
2023-11-01T09:50:13.672Z,71.66
2023-11-01T09:52:15.600Z,71.49
2023-11-01T09:54:17.190Z,70.77
2023-11-01T09:56:21.360Z,70.06
2023-11-01T09:58:24.376Z,70.00
2023-11-01T10:00:30.228Z,69.57
2023-11-01T10:02:32.057Z,69.08
2023-11-01T10:04:35.841Z,69.20
2023-11-01T10:06:38.013Z,67.62
2023-11-01T10:08:40.284Z,67.37
2023-11-01T10:10:42.766Z,67.17
2023-11-01T10:12:47.219Z,66.48
2023-11-01T10:14:49.386Z,65.38
2023-11-01T10:16:51.128Z,65.00
2023-11-01T10:18:53.959Z,64.23
2023-11-01T10:20:58.673Z,63.08
2023-11-01T10:23:00.509Z,62.05
2023-11-01T10:25:04.495Z,61.86
2023-11-01T10:27:08.001Z,62.96
2023-11-01T10:29:09.706Z,63.25
2023-11-01T10:31:15.812Z,64.20
2023-11-01T10:33:20.441Z,63.37
2023-11-01T10:35:22.280Z,63.26
2023-11-01T10:37:31.663Z,63.13
2023-11-01T10:39:38.865Z,62.87
2023-11-01T10:41:40.629Z,62.28
2023-11-01T10:43:42.374Z,62.94
2023-11-01T10:45:44.511Z,62.37
2023-11-01T10:47:49.287Z,61.68
2023-11-01T10:49:53.293Z,61.32
2023-11-01T10:51:56.749Z,61.20
2023-11-01T10:54:03.135Z,61.00
2023-11-01T10:56:08.747Z,60.37
2023-11-01T10:58:17.797Z,59.25
2023-11-01T11:00:25.710Z,58.84
2023-11-01T11:02:34.384Z,58.80
2023-11-01T11:04:53.176Z,59.13
2023-11-01T11:07:36.177Z,59.29
2023-11-01T11:09:39.396Z,58.32
2023-11-01T11:11:41.262Z,59.26
2023-11-01T11:13:44.006Z,58.93
2023-11-01T11:15:49.400Z,57.78
2023-11-01T11:18:07.703Z,57.70
2023-11-01T11:20:14.088Z,56.83
2023-11-01T11:22:17.162Z,55.68
2023-11-01T11:24:56.881Z,55.70
2023-11-01T11:26:58.686Z,56.10
2023-11-01T11:29:00.899Z,56.67
2023-11-01T11:31:06.674Z,56.63
2023-11-01T11:33:08.624Z,56.91
2023-11-01T11:35:22.432Z,57.00
2023-11-01T11:37:30.190Z,56.46
2023-11-01T11:40:08.744Z,55.95
2023-11-01T11:42:59.257Z,56.30
2023-11-01T11:45:02.535Z,55.81
2023-11-01T11:47:32.971Z,55.66
2023-11-01T11:49:38.967Z,55.55
2023-11-01T11:51:51.119Z,55.05
2023-11-01T11:53:53.546Z,54.38
2023-11-01T11:55:55.509Z,54.17
2023-11-01T11:57:57.223Z,53.64
2023-11-01T12:00:09.110Z,53.52
2023-11-01T12:02:19.890Z,54.16
2023-11-01T12:04:22.722Z,53.93
2023-11-01T12:06:25.691Z,53.50
2023-11-01T12:08:37.727Z,53.60
2023-11-01T12:10:50.651Z,54.38
2023-11-01T12:12:55.632Z,54.03
2023-11-01T12:14:59.653Z,55.07
2023-11-01T12:17:03.359Z,54.00
2023-11-01T12:19:12.140Z,54.70
2023-11-01T12:21:14.079Z,54.38
2023-11-01T12:23:15.965Z,54.08
2023-11-01T12:25:24.584Z,53.61
2023-11-01T12:27:31.111Z,53.75
2023-11-01T12:29:43.656Z,53.72
2023-11-01T12:32:00.145Z,53.41
2023-11-01T12:34:15.517Z,53.68
2023-11-01T12:36:29.049Z,53.53
2023-11-01T12:38:34.456Z,52.99
2023-11-01T12:40:38.806Z,52.74
2023-11-01T12:42:42.849Z,53.42
2023-11-01T12:44:44.670Z,53.41
2023-11-01T12:46:46.940Z,53.63
2023-11-01T12:48:49.945Z,53.70
2023-11-01T12:50:52.772Z,53.54
2023-11-01T12:52:55.420Z,53.57
2023-11-01T12:54:57.144Z,53.28
2023-11-01T12:56:59.321Z,53.26
2023-11-01T12:59:19.978Z,53.19
2023-11-01T13:01:22.861Z,53.00
2023-11-01T13:03:24.829Z,52.55
2023-11-01T13:05:27.878Z,52.88
2023-11-01T13:07:32.318Z,52.98
2023-11-01T13:09:34.802Z,53.25
2023-11-01T13:11:36.543Z,53.35
2023-11-01T13:13:38.546Z,53.33
2023-11-01T13:15:40.311Z,52.63
2023-11-01T13:17:42.327Z,52.60
2023-11-01T13:19:44.158Z,51.81
2023-11-01T13:21:46.476Z,51.54
2023-11-01T13:23:48.843Z,51.36
2023-11-01T13:25:50.672Z,51.72
2023-11-01T13:27:52.350Z,51.66
2023-11-01T13:29:54.237Z,51.35
2023-11-01T13:31:57.561Z,51.18
2023-11-01T13:33:59.242Z,50.92
2023-11-01T13:36:02.438Z,50.77
2023-11-01T13:38:04.255Z,50.37
2023-11-01T13:40:06.608Z,49.92
2023-11-01T13:42:08.779Z,49.39
2023-11-01T13:44:11.153Z,49.58
2023-11-01T13:46:14.549Z,49.46
2023-11-01T13:48:16.527Z,48.89
2023-11-01T13:50:18.674Z,49.29
2023-11-01T13:52:21.531Z,49.08
2023-11-01T13:54:23.606Z,49.31
2023-11-01T13:56:25.448Z,50.20
2023-11-01T13:58:27.983Z,49.59
2023-11-01T14:00:30.799Z,49.51
2023-11-01T14:02:33.863Z,49.31
2023-11-01T14:04:41.134Z,48.72
2023-11-01T14:06:42.907Z,48.93
2023-11-01T14:08:45.489Z,48.74
2023-11-01T14:10:49.334Z,49.47
2023-11-01T14:12:52.166Z,50.16
2023-11-01T14:14:53.834Z,49.94
2023-11-01T14:16:56.083Z,49.96
2023-11-01T14:18:59.951Z,49.54
2023-11-01T14:21:04.231Z,50.04
2023-11-01T14:23:05.923Z,49.89
2023-11-01T14:25:08.075Z,50.69
2023-11-01T14:27:12.311Z,50.62
2023-11-01T14:29:14.191Z,50.94
2023-11-01T14:31:20.939Z,50.47
2023-11-01T14:33:23.533Z,49.98
2023-11-01T14:35:25.701Z,49.76
2023-11-01T14:37:27.524Z,49.14
2023-11-01T14:39:29.166Z,49.32
2023-11-01T14:41:32.650Z,49.37
2023-11-01T14:43:34.654Z,49.19
2023-11-01T14:45:36.929Z,49.09
2023-11-01T14:47:38.795Z,48.86
2023-11-01T14:49:40.499Z,49.11
2023-11-01T14:51:43.334Z,49.08
2023-11-01T14:53:46.459Z,48.79
2023-11-01T14:55:48.457Z,49.06
2023-11-01T14:57:50.175Z,49.08
2023-11-01T14:59:52.340Z,49.45
2023-11-01T15:01:58.287Z,49.44
2023-11-01T15:04:00.159Z,49.85
2023-11-01T15:06:02.003Z,49.82
2023-11-01T15:08:03.876Z,50.16
2023-11-01T15:10:06.440Z,50.09
2023-11-01T15:12:08.464Z,50.29
2023-11-01T15:14:11.865Z,50.42
2023-11-01T15:16:15.845Z,50.86
2023-11-01T15:18:17.677Z,50.64
2023-11-01T15:20:19.415Z,50.70
2023-11-01T15:22:23.257Z,50.79
2023-11-01T15:24:29.540Z,50.76
2023-11-01T15:26:35.185Z,50.93
2023-11-01T15:28:36.969Z,51.39
2023-11-01T15:30:39.195Z,51.69
2023-11-01T15:32:41.394Z,51.87
2023-11-01T15:34:44.321Z,52.11
2023-11-01T15:36:48.962Z,52.52
2023-11-01T15:38:51.207Z,52.95
2023-11-01T15:40:54.082Z,53.44
2023-11-01T15:42:55.983Z,53.78
2023-11-01T15:44:58.165Z,53.96
2023-11-01T15:46:59.920Z,53.88
2023-11-01T15:49:02.627Z,54.21
2023-11-01T15:51:04.799Z,54.26
2023-11-01T15:53:06.508Z,54.47
2023-11-01T15:55:09.775Z,54.39
2023-11-01T15:57:14.165Z,54.81
2023-11-01T15:59:16.535Z,54.76
2023-11-01T16:01:21.449Z,54.92
2023-11-01T16:03:23.202Z,54.71
2023-11-01T16:05:26.205Z,54.92
2023-11-01T16:07:30.535Z,54.84
2023-11-01T16:09:35.352Z,54.77
2023-11-01T16:11:38.404Z,54.51
2023-11-01T16:13:42.315Z,54.22
2023-11-01T16:15:44.484Z,54.06
2023-11-01T16:17:46.777Z,54.10
2023-11-01T16:19:48.917Z,54.13
2023-11-01T16:21:50.872Z,53.74
2023-11-01T16:23:55.975Z,53.83
2023-11-01T16:25:57.991Z,54.26
2023-11-01T16:28:00.126Z,54.27
2023-11-01T16:30:02.358Z,54.23
2023-11-01T16:32:04.809Z,54.50
2023-11-01T16:34:06.779Z,54.37
2023-11-01T16:36:08.969Z,54.76
2023-11-01T16:38:11.137Z,54.87
2023-11-01T16:40:13.695Z,54.97
2023-11-01T16:42:17.297Z,54.76
2023-11-01T16:44:19.123Z,54.52
2023-11-01T16:46:21.051Z,54.54
2023-11-01T16:48:22.839Z,54.53
2023-11-01T16:50:24.716Z,54.38
2023-11-01T16:52:26.822Z,54.42
2023-11-01T16:54:29.358Z,54.66
2023-11-01T16:56:31.977Z,54.73
2023-11-01T16:58:33.698Z,54.93
2023-11-01T17:00:38.019Z,55.08
2023-11-01T17:02:47.892Z,54.67
2023-11-01T17:04:53.026Z,54.71
2023-11-01T17:06:55.184Z,54.85
2023-11-01T17:08:56.988Z,54.70
2023-11-01T17:10:58.905Z,54.95
2023-11-01T17:13:01.552Z,54.97
2023-11-01T17:15:05.304Z,55.23
2023-11-01T17:17:09.227Z,55.18
2023-11-01T17:19:11.088Z,55.01
2023-11-01T17:21:15.179Z,54.93
2023-11-01T17:23:16.835Z,55.00
2023-11-01T17:25:46.588Z,54.95
2023-11-01T17:27:48.255Z,54.83
2023-11-01T17:29:51.787Z,54.55
2023-11-01T17:31:53.736Z,54.54
2023-11-01T17:33:56.053Z,54.66
2023-11-01T17:35:57.752Z,54.55
2023-11-01T17:38:21.239Z,54.49
2023-11-01T17:40:23.436Z,54.34
2023-11-01T17:42:25.088Z,54.64
2023-11-01T17:44:32.378Z,54.59
2023-11-01T17:46:34.182Z,54.85
2023-11-01T17:48:36.019Z,54.98
2023-11-01T17:50:37.864Z,54.98
2023-11-01T17:52:42.586Z,54.91
2023-11-01T17:54:44.200Z,55.08
2023-11-01T17:56:46.373Z,55.16
2023-11-01T17:58:55.822Z,54.90
2023-11-01T18:00:57.700Z,55.03
2023-11-01T18:03:18.065Z,55.68
2023-11-01T18:05:36.801Z,56.67
2023-11-01T18:07:42.329Z,56.63
2023-11-01T18:09:44.158Z,56.79
2023-11-01T18:11:46.497Z,56.57
2023-11-01T18:13:48.311Z,56.66
2023-11-01T18:15:52.710Z,56.48
2023-11-01T18:17:55.552Z,56.37
2023-11-01T18:19:58.321Z,56.27
2023-11-01T18:22:00.158Z,56.47
2023-11-01T18:24:13.609Z,56.56
2023-11-01T18:26:22.386Z,56.60
2023-11-01T18:28:25.497Z,56.88
2023-11-01T18:30:28.435Z,56.91
2023-11-01T18:32:30.202Z,57.08
2023-11-01T18:34:37.571Z,57.32
2023-11-01T18:36:48.682Z,57.28
2023-11-01T18:38:58.642Z,57.50
2023-11-01T18:41:04.109Z,57.72
2023-11-01T18:43:06.363Z,57.17
2023-11-01T18:45:13.990Z,57.44
2023-11-01T18:47:18.450Z,57.41
2023-11-01T18:50:01.700Z,56.99
2023-11-01T18:52:08.336Z,57.95
2023-11-01T18:54:10.646Z,57.97
2023-11-01T18:56:14.152Z,57.79
2023-11-01T18:58:15.878Z,57.37
2023-11-01T19:00:29.629Z,56.98
2023-11-01T19:02:39.559Z,57.12
2023-11-01T19:04:41.279Z,57.16
2023-11-01T19:06:44.876Z,57.31
2023-11-01T19:08:46.920Z,57.78
2023-11-01T19:10:50.766Z,57.85
2023-11-01T19:12:56.275Z,57.56
2023-11-01T19:14:58.868Z,58.65
2023-11-01T19:17:01.616Z,59.10
2023-11-01T19:19:03.749Z,59.47
2023-11-01T19:21:06.017Z,59.54
2023-11-01T19:23:08.056Z,59.69
2023-11-01T19:25:11.224Z,59.61
2023-11-01T19:27:18.424Z,59.61
2023-11-01T19:29:26.540Z,59.78
2023-11-01T19:31:31.281Z,60.07
2023-11-01T19:33:34.197Z,60.31
2023-11-01T19:35:36.556Z,60.70
2023-11-01T19:37:41.814Z,60.53
2023-11-01T19:39:45.050Z,60.62
2023-11-01T19:41:47.164Z,60.59
2023-11-01T19:43:50.131Z,60.55
2023-11-01T19:45:54.266Z,60.61
2023-11-01T19:47:56.430Z,60.94
2023-11-01T19:49:58.927Z,60.68
2023-11-01T19:52:00.674Z,60.97
2023-11-01T19:54:04.221Z,61.41
2023-11-01T19:56:06.908Z,61.27
2023-11-01T19:58:08.761Z,61.96
2023-11-01T20:00:13.002Z,62.14
2023-11-01T20:02:15.311Z,61.59
2023-11-01T20:04:17.983Z,62.03
2023-11-01T20:06:21.233Z,62.31
2023-11-01T20:08:22.939Z,62.35
2023-11-01T20:10:26.479Z,62.30
2023-11-01T20:12:31.351Z,61.42
2023-11-01T20:14:34.664Z,61.30
2023-11-01T20:16:38.524Z,61.67
2023-11-01T20:18:40.368Z,61.30
2023-11-01T20:20:44.784Z,62.06
2023-11-01T20:22:46.599Z,62.74
2023-11-01T20:24:48.822Z,63.26
2023-11-01T20:26:51.417Z,63.00
2023-11-01T20:28:54.137Z,62.67
2023-11-01T20:30:56.342Z,62.01
2023-11-01T20:32:58.319Z,61.86
2023-11-01T20:35:01.352Z,61.36
2023-11-01T20:37:04.089Z,60.87
2023-11-01T20:39:06.735Z,61.30
2023-11-01T20:41:11.045Z,61.66
2023-11-01T20:43:12.739Z,61.87
2023-11-01T20:45:15.398Z,62.11
2023-11-01T20:47:19.228Z,61.84
2023-11-01T20:49:20.907Z,61.52
2023-11-01T20:51:23.408Z,60.66
2023-11-01T20:53:25.138Z,60.72
2023-11-01T20:55:29.774Z,60.28
2023-11-01T20:57:34.440Z,59.77
2023-11-01T20:59:37.625Z,59.66
2023-11-01T21:01:40.666Z,60.24
2023-11-01T21:03:42.521Z,60.66
2023-11-01T21:05:44.289Z,60.39
2023-11-01T21:07:46.843Z,60.61
2023-11-01T21:09:48.930Z,60.64
2023-11-01T21:11:50.699Z,60.17
2023-11-01T21:13:53.456Z,60.50
2023-11-01T21:15:57.698Z,60.19
2023-11-01T21:17:59.570Z,59.69
2023-11-01T21:20:01.429Z,60.59
2023-11-01T21:22:03.306Z,60.73
2023-11-01T21:24:05.707Z,60.52
2023-11-01T21:26:10.551Z,60.58
2023-11-01T21:28:12.561Z,60.90
2023-11-01T21:30:14.845Z,60.64
2023-11-01T21:32:17.148Z,60.70
2023-11-01T21:34:19.133Z,60.31
2023-11-01T21:36:21.122Z,60.33
2023-11-01T21:38:22.802Z,60.50
2023-11-01T21:40:24.811Z,60.66
2023-11-01T21:42:27.122Z,60.91
2023-11-01T21:44:40.041Z,60.90
2023-11-01T21:46:42.853Z,60.60
2023-11-01T21:48:45.280Z,60.71
2023-11-01T21:50:58.649Z,60.82
2023-11-01T21:53:00.539Z,60.66
2023-11-01T21:55:11.423Z,60.86
2023-11-01T21:57:13.662Z,60.65
2023-11-01T21:59:17.654Z,60.35
2023-11-01T22:01:22.422Z,60.72
2023-11-01T22:03:38.111Z,60.54
2023-11-01T22:05:40.022Z,60.38
2023-11-01T22:07:41.837Z,60.38
2023-11-01T22:09:47.932Z,60.77
2023-11-01T22:11:52.123Z,61.26
2023-11-01T22:13:54.008Z,61.73
2023-11-01T22:15:55.822Z,61.85
2023-11-01T22:17:57.773Z,62.49
2023-11-01T22:19:59.728Z,62.46
2023-11-01T22:22:06.436Z,62.18
2023-11-01T22:24:09.935Z,62.21
2023-11-01T22:26:18.641Z,62.65
2023-11-01T22:28:20.238Z,62.48
2023-11-01T22:30:21.995Z,62.43
2023-11-01T22:32:24.806Z,62.77
2023-11-01T22:34:30.227Z,63.10
2023-11-01T22:36:37.218Z,63.61
2023-11-01T22:38:39.227Z,63.43
2023-11-01T22:40:43.305Z,64.39
2023-11-01T22:42:46.253Z,64.57
2023-11-01T22:44:49.442Z,65.13
2023-11-01T22:46:51.388Z,64.80
2023-11-01T22:48:53.079Z,64.81
2023-11-01T22:50:54.847Z,64.90
2023-11-01T22:52:56.864Z,65.10
2023-11-01T22:54:58.647Z,65.33
2023-11-01T22:57:00.697Z,65.50
2023-11-01T22:59:02.611Z,65.30
2023-11-01T23:01:05.035Z,64.29
2023-11-01T23:03:07.330Z,64.50
2023-11-01T23:05:10.068Z,64.07
2023-11-01T23:07:11.897Z,64.17
2023-11-01T23:09:14.099Z,64.30
2023-11-01T23:11:16.232Z,64.38
2023-11-01T23:13:18.348Z,64.20
2023-11-01T23:15:20.083Z,64.22
2023-11-01T23:17:21.890Z,64.36
2023-11-01T23:19:25.727Z,64.85
2023-11-01T23:21:29.219Z,66.09
2023-11-01T23:23:32.128Z,66.71
2023-11-01T23:25:35.786Z,67.88
2023-11-01T23:27:37.529Z,67.97
2023-11-01T23:29:40.110Z,68.72
2023-11-01T23:31:46.680Z,68.71
2023-11-01T23:33:48.813Z,70.06
2023-11-01T23:35:53.305Z,71.13
2023-11-01T23:37:56.339Z,71.43
2023-11-01T23:39:57.944Z,71.31
2023-11-01T23:41:59.959Z,71.48
2023-11-01T23:44:03.670Z,70.84
2023-11-01T23:46:17.535Z,70.85
2023-11-01T23:48:21.129Z,70.36
2023-11-01T23:50:47.447Z,69.05
2023-11-01T23:52:49.723Z,67.39
2023-11-01T23:54:53.530Z,67.27
2023-11-01T23:56:55.325Z,68.03
2023-11-01T23:58:57.032Z,67.74
